sensor_id;sensor_type;location;lat;lon;timestamp;P1;durP1;ratioP1;P2;durP2;ratioP2
24409;SDS011;12543;53.364;-1.504;2023-04-09T00:00:16;7.50;;;4.68;;
24409;SDS011;12543;53.364;-1.504;2023-04-09T00:02:43;6.45;;;5.35;;
24409;SDS011;12543;53.364;-1.504;2023-04-09T00:05:10;7.28;;;5.88;;
24409;SDS011;12543;53.364;-1.504;2023-04-09T00:07:37;6.90;;;5.07;;
24409;SDS011;12543;53.364;-1.504;2023-04-09T00:10:04;8.27;;;5.50;;
24409;SDS011;12543;53.364;-1.504;2023-04-09T00:12:32;7.50;;;5.45;;
24409;SDS011;12543;53.364;-1.504;2023-04-09T00:14:59;7.28;;;5.78;;
24409;SDS011;12543;53.364;-1.504;2023-04-09T00:17:26;7.00;;;5.35;;
24409;SDS011;12543;53.364;-1.504;2023-04-09T00:19:53;9.82;;;5.85;;
24409;SDS011;12543;53.364;-1.504;2023-04-09T00:22:20;8.88;;;5.72;;
24409;SDS011;12543;53.364;-1.504;2023-04-09T00:24:47;8.13;;;5.57;;
24409;SDS011;12543;53.364;-1.504;2023-04-09T00:27:14;8.75;;;5.45;;
24409;SDS011;12543;53.364;-1.504;2023-04-09T00:29:41;7.88;;;5.80;;
24409;SDS011;12543;53.364;-1.504;2023-04-09T00:32:09;7.43;;;5.82;;
24409;SDS011;12543;53.364;-1.504;2023-04-09T00:34:36;8.05;;;5.63;;
24409;SDS011;12543;53.364;-1.504;2023-04-09T00:37:04;7.50;;;5.97;;
24409;SDS011;12543;53.364;-1.504;2023-04-09T00:39:31;7.65;;;6.30;;
24409;SDS011;12543;53.364;-1.504;2023-04-09T00:41:59;7.65;;;5.65;;
24409;SDS011;12543;53.364;-1.504;2023-04-09T00:44:29;8.07;;;5.82;;
24409;SDS011;12543;53.364;-1.504;2023-04-09T00:46:56;7.45;;;5.78;;
24409;SDS011;12543;53.364;-1.504;2023-04-09T00:49:26;7.57;;;5.40;;
24409;SDS011;12543;53.364;-1.504;2023-04-09T00:51:53;8.38;;;5.90;;
24409;SDS011;12543;53.364;-1.504;2023-04-09T00:54:20;8.85;;;5.95;;
24409;SDS011;12543;53.364;-1.504;2023-04-09T00:56:47;8.75;;;6.13;;
24409;SDS011;12543;53.364;-1.504;2023-04-09T00:59:15;9.50;;;6.47;;
24409;SDS011;12543;53.364;-1.504;2023-04-09T01:01:42;7.78;;;6.10;;
24409;SDS011;12543;53.364;-1.504;2023-04-09T01:04:11;9.70;;;6.38;;
24409;SDS011;12543;53.364;-1.504;2023-04-09T01:06:44;9.10;;;6.32;;
24409;SDS011;12543;53.364;-1.504;2023-04-09T01:14:34;8.80;;;6.15;;
24409;SDS011;12543;53.364;-1.504;2023-04-09T01:17:16;8.65;;;5.70;;
24409;SDS011;12543;53.364;-1.504;2023-04-09T01:19:57;8.15;;;6.50;;
24409;SDS011;12543;53.364;-1.504;2023-04-09T01:30:34;9.63;;;7.05;;
24409;SDS011;12543;53.364;-1.504;2023-04-09T01:33:02;9.95;;;6.60;;
24409;SDS011;12543;53.364;-1.504;2023-04-09T01:35:31;8.15;;;6.35;;
24409;SDS011;12543;53.364;-1.504;2023-04-09T01:37:58;9.25;;;6.22;;
24409;SDS011;12543;53.364;-1.504;2023-04-09T01:42:53;10.88;;;6.72;;
24409;SDS011;12543;53.364;-1.504;2023-04-09T01:45:21;10.63;;;7.18;;
24409;SDS011;12543;53.364;-1.504;2023-04-09T01:47:49;10.93;;;7.17;;
24409;SDS011;12543;53.364;-1.504;2023-04-09T01:50:17;9.05;;;6.38;;
24409;SDS011;12543;53.364;-1.504;2023-04-09T01:52:44;8.95;;;7.10;;
24409;SDS011;12543;53.364;-1.504;2023-04-09T01:55:12;11.13;;;6.60;;
24409;SDS011;12543;53.364;-1.504;2023-04-09T01:57:39;9.00;;;7.07;;
24409;SDS011;12543;53.364;-1.504;2023-04-09T02:00:07;9.95;;;6.65;;
24409;SDS011;12543;53.364;-1.504;2023-04-09T02:02:42;9.00;;;6.80;;
24409;SDS011;12543;53.364;-1.504;2023-04-09T02:05:20;9.65;;;6.60;;
24409;SDS011;12543;53.364;-1.504;2023-04-09T02:07:54;9.65;;;6.63;;
24409;SDS011;12543;53.364;-1.504;2023-04-09T02:10:23;9.68;;;7.22;;
24409;SDS011;12543;53.364;-1.504;2023-04-09T02:12:52;10.85;;;7.18;;
24409;SDS011;12543;53.364;-1.504;2023-04-09T02:15:21;9.32;;;7.00;;
24409;SDS011;12543;53.364;-1.504;2023-04-09T02:17:50;10.82;;;7.30;;
24409;SDS011;12543;53.364;-1.504;2023-04-09T02:20:17;8.43;;;6.68;;
24409;SDS011;12543;53.364;-1.504;2023-04-09T02:22:45;8.48;;;6.75;;
24409;SDS011;12543;53.364;-1.504;2023-04-09T02:25:12;7.82;;;6.88;;
24409;SDS011;12543;53.364;-1.504;2023-04-09T02:27:40;8.75;;;6.75;;
24409;SDS011;12543;53.364;-1.504;2023-04-09T02:30:07;10.30;;;7.13;;
24409;SDS011;12543;53.364;-1.504;2023-04-09T02:32:35;7.28;;;6.05;;
24409;SDS011;12543;53.364;-1.504;2023-04-09T02:35:02;8.43;;;6.53;;
24409;SDS011;12543;53.364;-1.504;2023-04-09T02:37:29;8.27;;;6.30;;
24409;SDS011;12543;53.364;-1.504;2023-04-09T02:39:56;7.47;;;6.03;;
24409;SDS011;12543;53.364;-1.504;2023-04-09T02:42:23;10.45;;;6.95;;
24409;SDS011;12543;53.364;-1.504;2023-04-09T02:44:50;8.70;;;6.13;;
24409;SDS011;12543;53.364;-1.504;2023-04-09T02:47:17;10.63;;;6.82;;
24409;SDS011;12543;53.364;-1.504;2023-04-09T02:49:44;8.90;;;6.57;;
24409;SDS011;12543;53.364;-1.504;2023-04-09T02:52:11;8.52;;;7.13;;
24409;SDS011;12543;53.364;-1.504;2023-04-09T02:54:38;9.55;;;7.22;;
24409;SDS011;12543;53.364;-1.504;2023-04-09T02:57:06;10.30;;;6.65;;
24409;SDS011;12543;53.364;-1.504;2023-04-09T02:59:33;9.40;;;7.03;;
24409;SDS011;12543;53.364;-1.504;2023-04-09T03:02:01;9.95;;;7.20;;
24409;SDS011;12543;53.364;-1.504;2023-04-09T03:04:28;9.20;;;6.32;;
24409;SDS011;12543;53.364;-1.504;2023-04-09T03:06:55;10.07;;;7.30;;
24409;SDS011;12543;53.364;-1.504;2023-04-09T03:09:22;10.93;;;6.65;;
24409;SDS011;12543;53.364;-1.504;2023-04-09T03:11:49;8.45;;;6.75;;
24409;SDS011;12543;53.364;-1.504;2023-04-09T03:14:16;9.32;;;6.50;;
24409;SDS011;12543;53.364;-1.504;2023-04-09T03:16:43;9.95;;;7.57;;
24409;SDS011;12543;53.364;-1.504;2023-04-09T03:19:10;12.55;;;8.07;;
24409;SDS011;12543;53.364;-1.504;2023-04-09T03:21:37;10.95;;;6.85;;
24409;SDS011;12543;53.364;-1.504;2023-04-09T03:24:04;10.18;;;6.85;;
24409;SDS011;12543;53.364;-1.504;2023-04-09T03:26:31;10.18;;;7.18;;
24409;SDS011;12543;53.364;-1.504;2023-04-09T03:29:04;11.65;;;8.00;;
24409;SDS011;12543;53.364;-1.504;2023-04-09T03:31:32;13.70;;;8.63;;
24409;SDS011;12543;53.364;-1.504;2023-04-09T03:33:59;9.10;;;7.82;;
24409;SDS011;12543;53.364;-1.504;2023-04-09T03:36:27;11.75;;;8.82;;
24409;SDS011;12543;53.364;-1.504;2023-04-09T03:38:59;16.17;;;10.43;;
24409;SDS011;12543;53.364;-1.504;2023-04-09T03:41:41;16.10;;;10.55;;
24409;SDS011;12543;53.364;-1.504;2023-04-09T03:44:12;13.32;;;9.90;;
24409;SDS011;12543;53.364;-1.504;2023-04-09T03:47:06;15.45;;;10.18;;
24409;SDS011;12543;53.364;-1.504;2023-04-09T03:49:35;15.20;;;10.73;;
24409;SDS011;12543;53.364;-1.504;2023-04-09T03:52:24;17.50;;;11.88;;
24409;SDS011;12543;53.364;-1.504;2023-04-09T03:55:04;19.42;;;13.05;;
24409;SDS011;12543;53.364;-1.504;2023-04-09T03:57:31;18.00;;;13.40;;
24409;SDS011;12543;53.364;-1.504;2023-04-09T03:59:59;21.20;;;14.43;;
24409;SDS011;12543;53.364;-1.504;2023-04-09T04:02:34;24.00;;;15.57;;
24409;SDS011;12543;53.364;-1.504;2023-04-09T04:05:05;23.27;;;15.00;;
24409;SDS011;12543;53.364;-1.504;2023-04-09T04:07:41;24.65;;;15.98;;
24409;SDS011;12543;53.364;-1.504;2023-04-09T04:10:13;22.90;;;14.40;;
24409;SDS011;12543;53.364;-1.504;2023-04-09T04:12:44;18.50;;;13.10;;
24409;SDS011;12543;53.364;-1.504;2023-04-09T04:15:20;23.67;;;14.50;;
24409;SDS011;12543;53.364;-1.504;2023-04-09T04:17:53;22.60;;;14.88;;
24409;SDS011;12543;53.364;-1.504;2023-04-09T04:20:33;21.20;;;14.10;;
24409;SDS011;12543;53.364;-1.504;2023-04-09T04:23:05;20.05;;;13.38;;
24409;SDS011;12543;53.364;-1.504;2023-04-09T04:25:36;19.10;;;13.40;;
24409;SDS011;12543;53.364;-1.504;2023-04-09T04:28:06;20.58;;;13.27;;
24409;SDS011;12543;53.364;-1.504;2023-04-09T04:30:40;24.80;;;15.70;;
24409;SDS011;12543;53.364;-1.504;2023-04-09T04:33:08;30.23;;;17.75;;
24409;SDS011;12543;53.364;-1.504;2023-04-09T04:35:44;25.38;;;15.80;;
24409;SDS011;12543;53.364;-1.504;2023-04-09T04:38:28;30.00;;;18.33;;
24409;SDS011;12543;53.364;-1.504;2023-04-09T04:40:57;27.00;;;17.27;;
24409;SDS011;12543;53.364;-1.504;2023-04-09T04:43:25;27.70;;;17.27;;
24409;SDS011;12543;53.364;-1.504;2023-04-09T04:45:56;28.85;;;17.55;;
24409;SDS011;12543;53.364;-1.504;2023-04-09T04:48:27;28.17;;;17.92;;
24409;SDS011;12543;53.364;-1.504;2023-04-09T04:50:55;28.27;;;17.63;;
24409;SDS011;12543;53.364;-1.504;2023-04-09T04:53:27;28.25;;;17.35;;
24409;SDS011;12543;53.364;-1.504;2023-04-09T04:55:57;29.05;;;17.83;;
24409;SDS011;12543;53.364;-1.504;2023-04-09T04:58:25;22.40;;;15.15;;
24409;SDS011;12543;53.364;-1.504;2023-04-09T05:00:56;22.80;;;15.52;;
24409;SDS011;12543;53.364;-1.504;2023-04-09T05:03:23;25.35;;;16.77;;
24409;SDS011;12543;53.364;-1.504;2023-04-09T05:06:01;25.90;;;16.65;;
24409;SDS011;12543;53.364;-1.504;2023-04-09T05:08:37;25.88;;;17.77;;
24409;SDS011;12543;53.364;-1.504;2023-04-09T05:11:04;27.85;;;18.05;;
24409;SDS011;12543;53.364;-1.504;2023-04-09T05:13:35;28.50;;;17.58;;
24409;SDS011;12543;53.364;-1.504;2023-04-09T05:16:06;26.85;;;18.30;;
24409;SDS011;12543;53.364;-1.504;2023-04-09T05:21:02;25.52;;;17.88;;
24409;SDS011;12543;53.364;-1.504;2023-04-09T05:23:31;26.27;;;17.27;;
24409;SDS011;12543;53.364;-1.504;2023-04-09T05:25:59;25.92;;;16.77;;
24409;SDS011;12543;53.364;-1.504;2023-04-09T05:28:36;25.50;;;17.02;;
24409;SDS011;12543;53.364;-1.504;2023-04-09T05:31:14;23.23;;;16.00;;
24409;SDS011;12543;53.364;-1.504;2023-04-09T05:33:50;22.58;;;15.82;;
24409;SDS011;12543;53.364;-1.504;2023-04-09T05:36:23;25.13;;;16.50;;
24409;SDS011;12543;53.364;-1.504;2023-04-09T05:38:50;24.57;;;15.97;;
24409;SDS011;12543;53.364;-1.504;2023-04-09T05:41:18;26.48;;;17.48;;
24409;SDS011;12543;53.364;-1.504;2023-04-09T05:43:58;24.83;;;16.67;;
24409;SDS011;12543;53.364;-1.504;2023-04-09T05:46:27;25.35;;;17.27;;
24409;SDS011;12543;53.364;-1.504;2023-04-09T05:48:55;26.92;;;15.93;;
24409;SDS011;12543;53.364;-1.504;2023-04-09T05:51:24;21.52;;;14.90;;
24409;SDS011;12543;53.364;-1.504;2023-04-09T05:56:20;26.13;;;16.65;;
24409;SDS011;12543;53.364;-1.504;2023-04-09T05:58:54;24.95;;;17.08;;
24409;SDS011;12543;53.364;-1.504;2023-04-09T06:01:22;28.20;;;18.88;;
24409;SDS011;12543;53.364;-1.504;2023-04-09T06:03:48;35.03;;;21.55;;
24409;SDS011;12543;53.364;-1.504;2023-04-09T06:06:17;29.40;;;19.05;;
24409;SDS011;12543;53.364;-1.504;2023-04-09T06:08:44;29.75;;;18.58;;
24409;SDS011;12543;53.364;-1.504;2023-04-09T06:11:11;30.83;;;20.00;;
24409;SDS011;12543;53.364;-1.504;2023-04-09T06:13:39;33.90;;;21.35;;
24409;SDS011;12543;53.364;-1.504;2023-04-09T06:16:07;36.10;;;21.70;;
24409;SDS011;12543;53.364;-1.504;2023-04-09T06:18:35;31.02;;;19.48;;
24409;SDS011;12543;53.364;-1.504;2023-04-09T06:21:03;34.90;;;21.80;;
24409;SDS011;12543;53.364;-1.504;2023-04-09T06:23:32;35.42;;;21.92;;
24409;SDS011;12543;53.364;-1.504;2023-04-09T06:26:00;36.00;;;23.23;;
24409;SDS011;12543;53.364;-1.504;2023-04-09T06:28:27;30.50;;;20.25;;
24409;SDS011;12543;53.364;-1.504;2023-04-09T06:30:55;27.75;;;18.63;;
24409;SDS011;12543;53.364;-1.504;2023-04-09T06:33:22;30.92;;;19.98;;
24409;SDS011;12543;53.364;-1.504;2023-04-09T06:35:50;36.83;;;22.58;;
24409;SDS011;12543;53.364;-1.504;2023-04-09T06:38:17;38.67;;;23.63;;
24409;SDS011;12543;53.364;-1.504;2023-04-09T06:40:44;32.80;;;22.15;;
24409;SDS011;12543;53.364;-1.504;2023-04-09T06:43:11;33.40;;;21.13;;
24409;SDS011;12543;53.364;-1.504;2023-04-09T06:45:49;37.38;;;23.10;;
24409;SDS011;12543;53.364;-1.504;2023-04-09T06:48:16;27.90;;;18.85;;
24409;SDS011;12543;53.364;-1.504;2023-04-09T06:50:43;36.90;;;23.80;;
24409;SDS011;12543;53.364;-1.504;2023-04-09T06:53:11;31.98;;;20.52;;
24409;SDS011;12543;53.364;-1.504;2023-04-09T06:55:38;28.75;;;19.55;;
24409;SDS011;12543;53.364;-1.504;2023-04-09T06:58:05;32.35;;;20.77;;
24409;SDS011;12543;53.364;-1.504;2023-04-09T07:00:32;33.22;;;23.15;;
24409;SDS011;12543;53.364;-1.504;2023-04-09T07:02:59;37.97;;;25.05;;
24409;SDS011;12543;53.364;-1.504;2023-04-09T07:05:27;39.00;;;25.00;;
24409;SDS011;12543;53.364;-1.504;2023-04-09T07:07:54;34.30;;;23.52;;
24409;SDS011;12543;53.364;-1.504;2023-04-09T07:10:21;31.25;;;21.42;;
24409;SDS011;12543;53.364;-1.504;2023-04-09T07:12:48;37.60;;;24.15;;
24409;SDS011;12543;53.364;-1.504;2023-04-09T07:15:15;36.42;;;23.20;;
24409;SDS011;12543;53.364;-1.504;2023-04-09T07:17:42;34.42;;;21.33;;
24409;SDS011;12543;53.364;-1.504;2023-04-09T07:20:10;30.33;;;19.77;;
24409;SDS011;12543;53.364;-1.504;2023-04-09T07:22:37;32.42;;;21.02;;
24409;SDS011;12543;53.364;-1.504;2023-04-09T07:25:04;31.58;;;20.58;;
24409;SDS011;12543;53.364;-1.504;2023-04-09T07:27:32;29.20;;;19.92;;
24409;SDS011;12543;53.364;-1.504;2023-04-09T07:29:59;31.75;;;20.67;;
24409;SDS011;12543;53.364;-1.504;2023-04-09T07:32:26;35.42;;;21.77;;
24409;SDS011;12543;53.364;-1.504;2023-04-09T07:34:54;38.33;;;24.75;;
24409;SDS011;12543;53.364;-1.504;2023-04-09T07:37:22;37.00;;;23.83;;
24409;SDS011;12543;53.364;-1.504;2023-04-09T07:39:49;38.65;;;24.58;;
24409;SDS011;12543;53.364;-1.504;2023-04-09T07:42:16;37.63;;;24.15;;
24409;SDS011;12543;53.364;-1.504;2023-04-09T07:44:43;39.28;;;24.75;;
24409;SDS011;12543;53.364;-1.504;2023-04-09T07:47:10;32.95;;;22.15;;
24409;SDS011;12543;53.364;-1.504;2023-04-09T07:49:38;34.85;;;21.88;;
24409;SDS011;12543;53.364;-1.504;2023-04-09T07:52:05;27.80;;;18.60;;
24409;SDS011;12543;53.364;-1.504;2023-04-09T07:54:33;33.35;;;21.05;;
24409;SDS011;12543;53.364;-1.504;2023-04-09T07:57:00;38.63;;;24.63;;
24409;SDS011;12543;53.364;-1.504;2023-04-09T07:59:28;39.30;;;24.77;;
24409;SDS011;12543;53.364;-1.504;2023-04-09T08:01:56;42.22;;;27.00;;
24409;SDS011;12543;53.364;-1.504;2023-04-09T08:04:23;44.88;;;29.08;;
24409;SDS011;12543;53.364;-1.504;2023-04-09T08:06:50;46.20;;;28.15;;
24409;SDS011;12543;53.364;-1.504;2023-04-09T08:09:19;43.85;;;27.05;;
24409;SDS011;12543;53.364;-1.504;2023-04-09T08:11:46;39.08;;;24.67;;
24409;SDS011;12543;53.364;-1.504;2023-04-09T08:14:15;39.45;;;25.23;;
24409;SDS011;12543;53.364;-1.504;2023-04-09T08:16:43;42.60;;;26.10;;
24409;SDS011;12543;53.364;-1.504;2023-04-09T08:19:13;44.47;;;26.20;;
24409;SDS011;12543;53.364;-1.504;2023-04-09T08:21:41;48.78;;;27.30;;
24409;SDS011;12543;53.364;-1.504;2023-04-09T08:24:09;42.08;;;25.85;;
24409;SDS011;12543;53.364;-1.504;2023-04-09T08:26:37;43.40;;;26.98;;
24409;SDS011;12543;53.364;-1.504;2023-04-09T08:29:05;45.87;;;27.03;;
24409;SDS011;12543;53.364;-1.504;2023-04-09T08:31:33;41.78;;;26.70;;
24409;SDS011;12543;53.364;-1.504;2023-04-09T08:34:02;35.17;;;22.40;;
24409;SDS011;12543;53.364;-1.504;2023-04-09T08:36:29;37.20;;;22.80;;
24409;SDS011;12543;53.364;-1.504;2023-04-09T08:38:57;43.70;;;25.50;;
24409;SDS011;12543;53.364;-1.504;2023-04-09T08:41:26;43.42;;;25.75;;
24409;SDS011;12543;53.364;-1.504;2023-04-09T08:43:57;45.30;;;26.95;;
24409;SDS011;12543;53.364;-1.504;2023-04-09T08:46:25;46.17;;;27.42;;
24409;SDS011;12543;53.364;-1.504;2023-04-09T08:48:54;46.60;;;27.98;;
24409;SDS011;12543;53.364;-1.504;2023-04-09T08:51:22;42.72;;;26.48;;
24409;SDS011;12543;53.364;-1.504;2023-04-09T08:56:29;41.42;;;24.10;;
24409;SDS011;12543;53.364;-1.504;2023-04-09T08:58:57;50.63;;;28.48;;
24409;SDS011;12543;53.364;-1.504;2023-04-09T09:01:25;41.10;;;25.65;;
24409;SDS011;12543;53.364;-1.504;2023-04-09T09:03:55;43.72;;;25.35;;
24409;SDS011;12543;53.364;-1.504;2023-04-09T09:06:26;38.65;;;24.50;;
24409;SDS011;12543;53.364;-1.504;2023-04-09T09:09:01;46.05;;;26.92;;
24409;SDS011;12543;53.364;-1.504;2023-04-09T09:11:30;46.42;;;28.00;;
24409;SDS011;12543;53.364;-1.504;2023-04-09T09:14:05;45.15;;;28.08;;
24409;SDS011;12543;53.364;-1.504;2023-04-09T09:16:34;45.10;;;27.15;;
24409;SDS011;12543;53.364;-1.504;2023-04-09T09:19:05;50.28;;;29.90;;
24409;SDS011;12543;53.364;-1.504;2023-04-09T09:21:32;58.28;;;35.17;;
24409;SDS011;12543;53.364;-1.504;2023-04-09T09:24:02;51.92;;;30.13;;
24409;SDS011;12543;53.364;-1.504;2023-04-09T09:26:42;73.13;;;39.30;;
24409;SDS011;12543;53.364;-1.504;2023-04-09T09:29:09;67.72;;;37.53;;
24409;SDS011;12543;53.364;-1.504;2023-04-09T09:31:47;54.97;;;30.88;;
24409;SDS011;12543;53.364;-1.504;2023-04-09T09:34:20;50.65;;;29.45;;
24409;SDS011;12543;53.364;-1.504;2023-04-09T09:36:48;53.75;;;30.23;;
24409;SDS011;12543;53.364;-1.504;2023-04-09T09:39:16;59.38;;;35.72;;
24409;SDS011;12543;53.364;-1.504;2023-04-09T09:41:43;52.00;;;32.65;;
24409;SDS011;12543;53.364;-1.504;2023-04-09T09:44:12;51.50;;;31.23;;
24409;SDS011;12543;53.364;-1.504;2023-04-09T09:46:57;48.67;;;28.60;;
24409;SDS011;12543;53.364;-1.504;2023-04-09T09:49:24;46.67;;;27.40;;
24409;SDS011;12543;53.364;-1.504;2023-04-09T09:51:52;44.10;;;27.27;;
24409;SDS011;12543;53.364;-1.504;2023-04-09T09:54:22;47.20;;;27.58;;
24409;SDS011;12543;53.364;-1.504;2023-04-09T09:56:52;43.53;;;24.85;;
24409;SDS011;12543;53.364;-1.504;2023-04-09T09:59:25;38.20;;;24.92;;
24409;SDS011;12543;53.364;-1.504;2023-04-09T10:01:58;39.60;;;25.48;;
24409;SDS011;12543;53.364;-1.504;2023-04-09T10:04:32;41.58;;;25.88;;
24409;SDS011;12543;53.364;-1.504;2023-04-09T10:07:02;42.17;;;25.55;;
24409;SDS011;12543;53.364;-1.504;2023-04-09T10:09:32;40.85;;;24.85;;
24409;SDS011;12543;53.364;-1.504;2023-04-09T10:12:06;36.58;;;23.42;;
24409;SDS011;12543;53.364;-1.504;2023-04-09T10:17:02;34.97;;;21.30;;
24409;SDS011;12543;53.364;-1.504;2023-04-09T10:19:30;33.47;;;22.05;;
24409;SDS011;12543;53.364;-1.504;2023-04-09T10:22:04;41.05;;;23.88;;
24409;SDS011;12543;53.364;-1.504;2023-04-09T10:24:37;37.08;;;23.52;;
24409;SDS011;12543;53.364;-1.504;2023-04-09T10:27:08;35.28;;;22.15;;
24409;SDS011;12543;53.364;-1.504;2023-04-09T10:29:43;34.95;;;20.95;;
24409;SDS011;12543;53.364;-1.504;2023-04-09T10:32:20;32.60;;;21.23;;
24409;SDS011;12543;53.364;-1.504;2023-04-09T10:34:50;31.85;;;20.25;;
24409;SDS011;12543;53.364;-1.504;2023-04-09T10:37:27;33.33;;;21.63;;
24409;SDS011;12543;53.364;-1.504;2023-04-09T10:39:54;36.22;;;22.73;;
24409;SDS011;12543;53.364;-1.504;2023-04-09T10:42:31;33.72;;;21.52;;
24409;SDS011;12543;53.364;-1.504;2023-04-09T10:45:11;43.17;;;26.42;;
24409;SDS011;12543;53.364;-1.504;2023-04-09T10:47:41;37.45;;;22.90;;
24409;SDS011;12543;53.364;-1.504;2023-04-09T10:50:24;35.72;;;20.45;;
24409;SDS011;12543;53.364;-1.504;2023-04-09T10:58:05;31.08;;;19.67;;
24409;SDS011;12543;53.364;-1.504;2023-04-09T11:00:38;29.60;;;19.08;;
24409;SDS011;12543;53.364;-1.504;2023-04-09T11:03:26;27.80;;;19.17;;
24409;SDS011;12543;53.364;-1.504;2023-04-09T11:06:05;29.85;;;19.55;;
24409;SDS011;12543;53.364;-1.504;2023-04-09T11:08:36;25.30;;;17.45;;
24409;SDS011;12543;53.364;-1.504;2023-04-09T11:11:04;26.45;;;17.33;;
24409;SDS011;12543;53.364;-1.504;2023-04-09T11:13:31;25.17;;;17.17;;
24409;SDS011;12543;53.364;-1.504;2023-04-09T11:15:59;24.20;;;17.20;;
24409;SDS011;12543;53.364;-1.504;2023-04-09T11:18:29;30.95;;;20.42;;
24409;SDS011;12543;53.364;-1.504;2023-04-09T11:20:57;26.30;;;17.67;;
24409;SDS011;12543;53.364;-1.504;2023-04-09T11:23:26;26.42;;;17.27;;
24409;SDS011;12543;53.364;-1.504;2023-04-09T11:25:54;26.77;;;17.35;;
24409;SDS011;12543;53.364;-1.504;2023-04-09T11:28:22;25.52;;;18.08;;
24409;SDS011;12543;53.364;-1.504;2023-04-09T11:30:50;21.30;;;15.43;;
24409;SDS011;12543;53.364;-1.504;2023-04-09T11:33:17;20.77;;;15.50;;
24409;SDS011;12543;53.364;-1.504;2023-04-09T11:35:46;24.17;;;15.95;;
24409;SDS011;12543;53.364;-1.504;2023-04-09T11:38:14;20.48;;;15.73;;
24409;SDS011;12543;53.364;-1.504;2023-04-09T11:40:41;20.67;;;14.30;;
24409;SDS011;12543;53.364;-1.504;2023-04-09T11:43:14;20.08;;;14.43;;
24409;SDS011;12543;53.364;-1.504;2023-04-09T11:45:42;19.15;;;13.95;;
24409;SDS011;12543;53.364;-1.504;2023-04-09T11:48:10;19.80;;;14.57;;
24409;SDS011;12543;53.364;-1.504;2023-04-09T11:50:38;21.25;;;15.50;;
24409;SDS011;12543;53.364;-1.504;2023-04-09T11:53:18;18.52;;;14.18;;
24409;SDS011;12543;53.364;-1.504;2023-04-09T11:55:48;18.27;;;13.38;;
24409;SDS011;12543;53.364;-1.504;2023-04-09T11:58:17;16.20;;;13.18;;
24409;SDS011;12543;53.364;-1.504;2023-04-09T12:00:47;17.90;;;11.80;;
24409;SDS011;12543;53.364;-1.504;2023-04-09T12:03:14;16.40;;;12.40;;
24409;SDS011;12543;53.364;-1.504;2023-04-09T12:05:44;19.42;;;14.23;;
24409;SDS011;12543;53.364;-1.504;2023-04-09T12:08:16;16.95;;;13.02;;
24409;SDS011;12543;53.364;-1.504;2023-04-09T12:10:49;19.10;;;14.15;;
24409;SDS011;12543;53.364;-1.504;2023-04-09T12:13:19;17.88;;;12.27;;
24409;SDS011;12543;53.364;-1.504;2023-04-09T12:15:47;18.13;;;13.40;;
24409;SDS011;12543;53.364;-1.504;2023-04-09T12:18:15;16.33;;;11.57;;
24409;SDS011;12543;53.364;-1.504;2023-04-09T12:20:43;15.73;;;12.68;;
24409;SDS011;12543;53.364;-1.504;2023-04-09T12:23:13;17.92;;;13.98;;
24409;SDS011;12543;53.364;-1.504;2023-04-09T12:25:42;14.40;;;10.77;;
24409;SDS011;12543;53.364;-1.504;2023-04-09T12:28:11;13.05;;;10.70;;
24409;SDS011;12543;53.364;-1.504;2023-04-09T12:30:41;15.43;;;11.73;;
24409;SDS011;12543;53.364;-1.504;2023-04-09T12:33:08;11.63;;;9.77;;
24409;SDS011;12543;53.364;-1.504;2023-04-09T12:38:04;14.25;;;11.27;;
24409;SDS011;12543;53.364;-1.504;2023-04-09T12:40:31;15.43;;;11.18;;
24409;SDS011;12543;53.364;-1.504;2023-04-09T12:42:59;15.73;;;11.93;;
24409;SDS011;12543;53.364;-1.504;2023-04-09T12:45:27;11.98;;;10.07;;
24409;SDS011;12543;53.364;-1.504;2023-04-09T12:47:56;11.82;;;9.88;;
24409;SDS011;12543;53.364;-1.504;2023-04-09T12:50:23;15.00;;;12.13;;
24409;SDS011;12543;53.364;-1.504;2023-04-09T12:52:50;13.60;;;10.25;;
24409;SDS011;12543;53.364;-1.504;2023-04-09T12:55:17;13.55;;;10.45;;
24409;SDS011;12543;53.364;-1.504;2023-04-09T12:57:44;13.27;;;10.43;;
24409;SDS011;12543;53.364;-1.504;2023-04-09T13:00:12;14.52;;;10.57;;
24409;SDS011;12543;53.364;-1.504;2023-04-09T13:02:40;13.77;;;11.60;;
24409;SDS011;12543;53.364;-1.504;2023-04-09T13:05:07;15.57;;;11.77;;
24409;SDS011;12543;53.364;-1.504;2023-04-09T13:07:35;12.43;;;10.25;;
24409;SDS011;12543;53.364;-1.504;2023-04-09T13:10:02;10.75;;;8.35;;
24409;SDS011;12543;53.364;-1.504;2023-04-09T13:12:29;11.68;;;9.73;;
24409;SDS011;12543;53.364;-1.504;2023-04-09T13:14:56;14.32;;;11.43;;
24409;SDS011;12543;53.364;-1.504;2023-04-09T13:17:24;13.25;;;10.13;;
24409;SDS011;12543;53.364;-1.504;2023-04-09T13:19:51;13.65;;;10.05;;
24409;SDS011;12543;53.364;-1.504;2023-04-09T13:22:19;14.02;;;10.63;;
24409;SDS011;12543;53.364;-1.504;2023-04-09T13:24:46;15.48;;;10.77;;
24409;SDS011;12543;53.364;-1.504;2023-04-09T13:27:13;12.10;;;10.27;;
24409;SDS011;12543;53.364;-1.504;2023-04-09T13:29:44;13.40;;;10.23;;
24409;SDS011;12543;53.364;-1.504;2023-04-09T13:32:11;11.73;;;9.68;;
24409;SDS011;12543;53.364;-1.504;2023-04-09T13:34:38;14.38;;;10.45;;
24409;SDS011;12543;53.364;-1.504;2023-04-09T13:37:06;12.85;;;9.52;;
24409;SDS011;12543;53.364;-1.504;2023-04-09T13:39:34;12.07;;;10.15;;
24409;SDS011;12543;53.364;-1.504;2023-04-09T13:42:01;14.80;;;11.82;;
24409;SDS011;12543;53.364;-1.504;2023-04-09T13:44:39;13.80;;;11.43;;
24409;SDS011;12543;53.364;-1.504;2023-04-09T13:47:08;12.82;;;10.27;;
24409;SDS011;12543;53.364;-1.504;2023-04-09T13:49:38;16.75;;;12.98;;
24409;SDS011;12543;53.364;-1.504;2023-04-09T13:52:06;15.30;;;11.98;;
24409;SDS011;12543;53.364;-1.504;2023-04-09T13:54:33;18.33;;;13.05;;
24409;SDS011;12543;53.364;-1.504;2023-04-09T13:57:01;15.27;;;12.05;;
24409;SDS011;12543;53.364;-1.504;2023-04-09T13:59:29;13.70;;;10.98;;
24409;SDS011;12543;53.364;-1.504;2023-04-09T14:01:56;15.50;;;11.88;;
24409;SDS011;12543;53.364;-1.504;2023-04-09T14:04:23;12.63;;;10.48;;
24409;SDS011;12543;53.364;-1.504;2023-04-09T14:06:51;13.98;;;10.68;;
24409;SDS011;12543;53.364;-1.504;2023-04-09T14:09:18;12.75;;;10.07;;
24409;SDS011;12543;53.364;-1.504;2023-04-09T14:11:45;13.80;;;9.98;;
24409;SDS011;12543;53.364;-1.504;2023-04-09T14:14:12;15.02;;;11.35;;
24409;SDS011;12543;53.364;-1.504;2023-04-09T14:16:39;14.98;;;11.02;;
24409;SDS011;12543;53.364;-1.504;2023-04-09T14:19:06;16.27;;;11.37;;
24409;SDS011;12543;53.364;-1.504;2023-04-09T14:21:35;16.85;;;12.13;;
24409;SDS011;12543;53.364;-1.504;2023-04-09T14:24:02;17.88;;;10.98;;
24409;SDS011;12543;53.364;-1.504;2023-04-09T14:26:29;15.50;;;11.95;;
24409;SDS011;12543;53.364;-1.504;2023-04-09T14:28:56;15.57;;;11.93;;
24409;SDS011;12543;53.364;-1.504;2023-04-09T14:31:24;14.38;;;10.18;;
24409;SDS011;12543;53.364;-1.504;2023-04-09T14:33:51;10.57;;;8.63;;
24409;SDS011;12543;53.364;-1.504;2023-04-09T14:36:18;9.77;;;7.47;;
24409;SDS011;12543;53.364;-1.504;2023-04-09T14:38:45;12.95;;;10.23;;
24409;SDS011;12543;53.364;-1.504;2023-04-09T14:41:15;15.45;;;11.73;;
24409;SDS011;12543;53.364;-1.504;2023-04-09T14:43:42;13.80;;;10.60;;
24409;SDS011;12543;53.364;-1.504;2023-04-09T14:46:09;14.10;;;10.93;;
24409;SDS011;12543;53.364;-1.504;2023-04-09T14:48:39;14.30;;;11.20;;
24409;SDS011;12543;53.364;-1.504;2023-04-09T14:51:09;18.08;;;11.40;;
24409;SDS011;12543;53.364;-1.504;2023-04-09T14:53:37;14.65;;;11.30;;
24409;SDS011;12543;53.364;-1.504;2023-04-09T14:56:04;17.02;;;11.82;;
24409;SDS011;12543;53.364;-1.504;2023-04-09T14:58:32;15.90;;;12.18;;